sensor_id;sensor_type;location;lat;lon;timestamp;P1;durP1;ratioP1;P2;durP2;ratioP2
61096;SDS011;46977;50.936;6.908;2023-01-19T00:02:24;10.10;;;4.93;;
61096;SDS011;46977;50.936;6.908;2023-01-19T00:05:26;11.55;;;4.93;;
61096;SDS011;46977;50.936;6.908;2023-01-19T00:08:30;8.60;;;5.63;;
61096;SDS011;46977;50.936;6.908;2023-01-19T00:11:32;10.57;;;6.05;;
61096;SDS011;46977;50.936;6.908;2023-01-19T00:14:35;8.98;;;4.47;;
61096;SDS011;46977;50.936;6.908;2023-01-19T00:17:37;6.63;;;4.72;;
61096;SDS011;46977;50.936;6.908;2023-01-19T00:20:43;11.75;;;5.80;;
61096;SDS011;46977;50.936;6.908;2023-01-19T00:23:47;9.45;;;5.03;;
61096;SDS011;46977;50.936;6.908;2023-01-19T00:26:51;8.45;;;4.65;;
61096;SDS011;46977;50.936;6.908;2023-01-19T00:29:54;11.10;;;6.03;;
61096;SDS011;46977;50.936;6.908;2023-01-19T00:32:56;11.25;;;5.97;;
61096;SDS011;46977;50.936;6.908;2023-01-19T00:36:00;12.73;;;6.32;;
61096;SDS011;46977;50.936;6.908;2023-01-19T00:39:04;9.15;;;4.90;;
61096;SDS011;46977;50.936;6.908;2023-01-19T00:42:07;16.55;;;6.50;;
61096;SDS011;46977;50.936;6.908;2023-01-19T00:45:28;7.43;;;5.15;;
61096;SDS011;46977;50.936;6.908;2023-01-19T00:48:30;8.65;;;4.47;;
61096;SDS011;46977;50.936;6.908;2023-01-19T00:51:32;8.57;;;4.75;;
61096;SDS011;46977;50.936;6.908;2023-01-19T00:54:36;7.78;;;4.07;;
61096;SDS011;46977;50.936;6.908;2023-01-19T00:57:38;11.18;;;4.40;;
61096;SDS011;46977;50.936;6.908;2023-01-19T01:00:41;9.32;;;4.45;;
61096;SDS011;46977;50.936;6.908;2023-01-19T01:03:43;6.88;;;4.65;;
61096;SDS011;46977;50.936;6.908;2023-01-19T01:06:45;10.93;;;4.50;;
61096;SDS011;46977;50.936;6.908;2023-01-19T01:09:49;5.90;;;3.80;;
61096;SDS011;46977;50.936;6.908;2023-01-19T01:12:52;5.60;;;4.20;;
61096;SDS011;46977;50.936;6.908;2023-01-19T01:15:58;4.38;;;3.65;;
61096;SDS011;46977;50.936;6.908;2023-01-19T01:19:01;5.97;;;3.67;;
61096;SDS011;46977;50.936;6.908;2023-01-19T01:22:04;3.95;;;3.05;;
61096;SDS011;46977;50.936;6.908;2023-01-19T01:25:08;3.67;;;3.05;;
61096;SDS011;46977;50.936;6.908;2023-01-19T01:28:10;3.55;;;2.63;;
61096;SDS011;46977;50.936;6.908;2023-01-19T01:31:12;4.43;;;3.03;;
61096;SDS011;46977;50.936;6.908;2023-01-19T01:34:15;5.68;;;3.15;;
61096;SDS011;46977;50.936;6.908;2023-01-19T01:37:18;4.72;;;3.17;;
61096;SDS011;46977;50.936;6.908;2023-01-19T01:40:21;5.95;;;2.55;;
61096;SDS011;46977;50.936;6.908;2023-01-19T01:43:39;5.20;;;2.53;;
61096;SDS011;46977;50.936;6.908;2023-01-19T01:46:43;5.65;;;2.38;;
61096;SDS011;46977;50.936;6.908;2023-01-19T01:49:45;4.28;;;2.70;;
61096;SDS011;46977;50.936;6.908;2023-01-19T01:52:49;4.93;;;2.33;;
61096;SDS011;46977;50.936;6.908;2023-01-19T01:56:11;3.72;;;2.58;;
61096;SDS011;46977;50.936;6.908;2023-01-19T01:59:15;5.57;;;2.88;;
61096;SDS011;46977;50.936;6.908;2023-01-19T02:02:26;5.53;;;3.00;;
61096;SDS011;46977;50.936;6.908;2023-01-19T02:05:47;3.77;;;2.60;;
61096;SDS011;46977;50.936;6.908;2023-01-19T02:08:51;4.28;;;3.15;;
61096;SDS011;46977;50.936;6.908;2023-01-19T02:12:15;4.63;;;1.98;;
61096;SDS011;46977;50.936;6.908;2023-01-19T02:15:36;4.47;;;2.35;;
61096;SDS011;46977;50.936;6.908;2023-01-19T02:18:38;7.82;;;3.08;;
61096;SDS011;46977;50.936;6.908;2023-01-19T02:21:43;6.80;;;3.08;;
61096;SDS011;46977;50.936;6.908;2023-01-19T02:24:51;4.40;;;2.47;;
61096;SDS011;46977;50.936;6.908;2023-01-19T02:27:54;6.40;;;2.85;;
61096;SDS011;46977;50.936;6.908;2023-01-19T02:30:57;5.95;;;3.03;;
61096;SDS011;46977;50.936;6.908;2023-01-19T02:34:00;5.45;;;3.08;;
61096;SDS011;46977;50.936;6.908;2023-01-19T02:37:03;4.45;;;2.40;;
61096;SDS011;46977;50.936;6.908;2023-01-19T02:40:12;8.88;;;3.20;;
61096;SDS011;46977;50.936;6.908;2023-01-19T02:43:16;3.78;;;2.75;;
61096;SDS011;46977;50.936;6.908;2023-01-19T02:46:19;6.45;;;3.63;;
61096;SDS011;46977;50.936;6.908;2023-01-19T02:49:21;9.25;;;3.70;;
61096;SDS011;46977;50.936;6.908;2023-01-19T02:52:24;7.53;;;4.32;;
61096;SDS011;46977;50.936;6.908;2023-01-19T02:55:31;5.88;;;4.80;;
61096;SDS011;46977;50.936;6.908;2023-01-19T02:58:35;9.30;;;4.68;;
61096;SDS011;46977;50.936;6.908;2023-01-19T03:01:46;7.18;;;4.60;;
61096;SDS011;46977;50.936;6.908;2023-01-19T03:04:58;4.55;;;3.28;;
61096;SDS011;46977;50.936;6.908;2023-01-19T03:08:20;8.32;;;4.80;;
61096;SDS011;46977;50.936;6.908;2023-01-19T03:11:31;6.68;;;4.20;;
61096;SDS011;46977;50.936;6.908;2023-01-19T03:14:36;5.47;;;3.35;;
61096;SDS011;46977;50.936;6.908;2023-01-19T03:17:42;8.55;;;4.15;;
61096;SDS011;46977;50.936;6.908;2023-01-19T03:20:45;9.45;;;4.55;;
61096;SDS011;46977;50.936;6.908;2023-01-19T03:23:49;5.32;;;3.95;;
61096;SDS011;46977;50.936;6.908;2023-01-19T03:26:54;10.02;;;4.38;;
61096;SDS011;46977;50.936;6.908;2023-01-19T03:30:00;8.68;;;4.70;;
61096;SDS011;46977;50.936;6.908;2023-01-19T03:33:08;6.85;;;3.80;;
61096;SDS011;46977;50.936;6.908;2023-01-19T03:36:13;9.70;;;3.90;;
61096;SDS011;46977;50.936;6.908;2023-01-19T03:39:20;7.03;;;4.18;;
61096;SDS011;46977;50.936;6.908;2023-01-19T03:42:25;7.43;;;3.97;;
61096;SDS011;46977;50.936;6.908;2023-01-19T03:45:28;5.10;;;3.22;;
61096;SDS011;46977;50.936;6.908;2023-01-19T03:48:32;6.90;;;3.85;;
61096;SDS011;46977;50.936;6.908;2023-01-19T03:51:35;7.43;;;4.63;;
61096;SDS011;46977;50.936;6.908;2023-01-19T03:54:38;6.75;;;4.03;;
61096;SDS011;46977;50.936;6.908;2023-01-19T03:57:43;6.55;;;3.50;;
61096;SDS011;46977;50.936;6.908;2023-01-19T04:00:46;9.25;;;4.13;;
61096;SDS011;46977;50.936;6.908;2023-01-19T04:03:48;5.18;;;4.18;;
61096;SDS011;46977;50.936;6.908;2023-01-19T04:06:51;6.18;;;3.75;;
61096;SDS011;46977;50.936;6.908;2023-01-19T04:09:53;6.25;;;3.63;;
61096;SDS011;46977;50.936;6.908;2023-01-19T04:12:57;9.23;;;3.78;;
61096;SDS011;46977;50.936;6.908;2023-01-19T04:16:01;4.10;;;2.72;;
61096;SDS011;46977;50.936;6.908;2023-01-19T04:19:04;7.25;;;4.13;;
61096;SDS011;46977;50.936;6.908;2023-01-19T04:22:07;6.40;;;3.53;;
61096;SDS011;46977;50.936;6.908;2023-01-19T04:25:09;7.43;;;3.58;;
61096;SDS011;46977;50.936;6.908;2023-01-19T04:28:13;5.47;;;3.45;;
61096;SDS011;46977;50.936;6.908;2023-01-19T04:31:16;6.00;;;3.35;;
61096;SDS011;46977;50.936;6.908;2023-01-19T04:34:20;8.40;;;4.25;;
61096;SDS011;46977;50.936;6.908;2023-01-19T04:37:22;6.57;;;3.30;;
61096;SDS011;46977;50.936;6.908;2023-01-19T04:40:24;10.57;;;3.38;;
61096;SDS011;46977;50.936;6.908;2023-01-19T04:43:28;7.25;;;3.17;;
61096;SDS011;46977;50.936;6.908;2023-01-19T04:46:31;4.25;;;2.78;;
61096;SDS011;46977;50.936;6.908;2023-01-19T04:49:33;4.47;;;2.47;;
61096;SDS011;46977;50.936;6.908;2023-01-19T04:52:38;5.40;;;3.15;;
61096;SDS011;46977;50.936;6.908;2023-01-19T04:55:40;4.43;;;2.72;;
61096;SDS011;46977;50.936;6.908;2023-01-19T04:58:44;5.50;;;2.60;;
61096;SDS011;46977;50.936;6.908;2023-01-19T05:01:46;10.65;;;3.30;;
61096;SDS011;46977;50.936;6.908;2023-01-19T05:04:49;5.97;;;3.15;;
61096;SDS011;46977;50.936;6.908;2023-01-19T05:07:52;4.05;;;2.10;;
61096;SDS011;46977;50.936;6.908;2023-01-19T05:10:54;4.07;;;2.72;;
61096;SDS011;46977;50.936;6.908;2023-01-19T05:13:59;7.15;;;2.97;;
61096;SDS011;46977;50.936;6.908;2023-01-19T05:17:02;4.68;;;3.20;;
61096;SDS011;46977;50.936;6.908;2023-01-19T05:20:05;4.78;;;2.13;;
61096;SDS011;46977;50.936;6.908;2023-01-19T05:23:08;5.25;;;2.50;;
61096;SDS011;46977;50.936;6.908;2023-01-19T05:26:12;7.78;;;3.40;;
61096;SDS011;46977;50.936;6.908;2023-01-19T05:29:16;3.40;;;2.05;;
61096;SDS011;46977;50.936;6.908;2023-01-19T05:32:18;5.60;;;2.90;;
61096;SDS011;46977;50.936;6.908;2023-01-19T05:35:20;5.28;;;3.33;;
61096;SDS011;46977;50.936;6.908;2023-01-19T05:38:35;9.88;;;3.30;;
61096;SDS011;46977;50.936;6.908;2023-01-19T05:41:38;8.50;;;3.80;;
61096;SDS011;46977;50.936;6.908;2023-01-19T05:44:42;5.68;;;3.65;;
61096;SDS011;46977;50.936;6.908;2023-01-19T05:47:44;7.30;;;2.78;;
61096;SDS011;46977;50.936;6.908;2023-01-19T05:50:48;5.50;;;3.22;;
61096;SDS011;46977;50.936;6.908;2023-01-19T05:53:50;5.60;;;3.00;;
61096;SDS011;46977;50.936;6.908;2023-01-19T05:56:53;7.60;;;2.85;;
61096;SDS011;46977;50.936;6.908;2023-01-19T05:59:56;8.05;;;3.67;;
61096;SDS011;46977;50.936;6.908;2023-01-19T06:02:59;8.98;;;4.68;;
61096;SDS011;46977;50.936;6.908;2023-01-19T06:06:03;11.82;;;4.63;;
61096;SDS011;46977;50.936;6.908;2023-01-19T06:09:06;12.98;;;4.70;;
61096;SDS011;46977;50.936;6.908;2023-01-19T06:12:09;12.57;;;5.85;;
61096;SDS011;46977;50.936;6.908;2023-01-19T06:15:12;19.40;;;6.25;;
61096;SDS011;46977;50.936;6.908;2023-01-19T06:18:16;18.48;;;6.80;;
61096;SDS011;46977;50.936;6.908;2023-01-19T06:21:18;18.75;;;7.43;;
61096;SDS011;46977;50.936;6.908;2023-01-19T06:24:21;20.70;;;7.65;;
61096;SDS011;46977;50.936;6.908;2023-01-19T06:27:24;22.15;;;7.47;;
61096;SDS011;46977;50.936;6.908;2023-01-19T06:30:27;22.13;;;9.25;;
61096;SDS011;46977;50.936;6.908;2023-01-19T06:33:30;20.20;;;9.07;;
61096;SDS011;46977;50.936;6.908;2023-01-19T06:36:32;15.30;;;6.97;;
61096;SDS011;46977;50.936;6.908;2023-01-19T06:39:35;15.95;;;7.13;;
61096;SDS011;46977;50.936;6.908;2023-01-19T06:42:38;14.50;;;7.03;;
61096;SDS011;46977;50.936;6.908;2023-01-19T06:45:42;13.05;;;5.82;;
61096;SDS011;46977;50.936;6.908;2023-01-19T06:48:46;9.80;;;5.38;;
61096;SDS011;46977;50.936;6.908;2023-01-19T06:51:49;12.65;;;5.97;;
61096;SDS011;46977;50.936;6.908;2023-01-19T06:54:51;13.55;;;6.38;;
61096;SDS011;46977;50.936;6.908;2023-01-19T06:57:56;13.23;;;7.15;;
61096;SDS011;46977;50.936;6.908;2023-01-19T07:01:01;11.20;;;5.90;;
61096;SDS011;46977;50.936;6.908;2023-01-19T07:04:04;13.95;;;6.28;;
61096;SDS011;46977;50.936;6.908;2023-01-19T07:07:06;10.90;;;6.20;;
61096;SDS011;46977;50.936;6.908;2023-01-19T07:10:09;13.80;;;6.30;;
61096;SDS011;46977;50.936;6.908;2023-01-19T07:13:17;11.02;;;6.43;;
61096;SDS011;46977;50.936;6.908;2023-01-19T07:16:21;15.45;;;7.95;;
61096;SDS011;46977;50.936;6.908;2023-01-19T07:19:23;11.70;;;6.25;;
61096;SDS011;46977;50.936;6.908;2023-01-19T07:22:26;16.70;;;7.28;;
61096;SDS011;46977;50.936;6.908;2023-01-19T07:25:29;14.68;;;7.60;;
61096;SDS011;46977;50.936;6.908;2023-01-19T07:28:31;12.45;;;6.53;;
61096;SDS011;46977;50.936;6.908;2023-01-19T07:31:35;13.57;;;6.65;;
61096;SDS011;46977;50.936;6.908;2023-01-19T07:34:37;15.88;;;7.75;;
61096;SDS011;46977;50.936;6.908;2023-01-19T07:37:40;16.63;;;7.30;;
61096;SDS011;46977;50.936;6.908;2023-01-19T07:40:42;16.20;;;7.78;;
61096;SDS011;46977;50.936;6.908;2023-01-19T07:43:44;17.20;;;8.25;;
61096;SDS011;46977;50.936;6.908;2023-01-19T07:46:48;16.55;;;8.55;;
61096;SDS011;46977;50.936;6.908;2023-01-19T07:49:51;15.60;;;7.13;;
61096;SDS011;46977;50.936;6.908;2023-01-19T07:52:54;17.67;;;8.05;;
61096;SDS011;46977;50.936;6.908;2023-01-19T07:55:57;15.38;;;7.80;;
61096;SDS011;46977;50.936;6.908;2023-01-19T07:59:00;20.33;;;8.10;;
61096;SDS011;46977;50.936;6.908;2023-01-19T08:02:03;16.02;;;7.97;;
61096;SDS011;46977;50.936;6.908;2023-01-19T08:05:06;19.58;;;9.70;;
61096;SDS011;46977;50.936;6.908;2023-01-19T08:08:09;19.90;;;9.43;;
61096;SDS011;46977;50.936;6.908;2023-01-19T08:11:13;20.45;;;9.73;;
61096;SDS011;46977;50.936;6.908;2023-01-19T08:14:16;20.73;;;8.80;;
61096;SDS011;46977;50.936;6.908;2023-01-19T08:17:20;19.15;;;8.90;;
61096;SDS011;46977;50.936;6.908;2023-01-19T08:20:22;16.80;;;8.90;;
61096;SDS011;46977;50.936;6.908;2023-01-19T08:23:25;18.77;;;8.07;;
61096;SDS011;46977;50.936;6.908;2023-01-19T08:26:29;21.48;;;9.50;;
61096;SDS011;46977;50.936;6.908;2023-01-19T08:29:32;20.75;;;8.60;;
61096;SDS011;46977;50.936;6.908;2023-01-19T08:32:36;20.67;;;8.40;;
61096;SDS011;46977;50.936;6.908;2023-01-19T08:35:40;19.15;;;8.77;;
61096;SDS011;46977;50.936;6.908;2023-01-19T08:38:43;19.55;;;8.73;;
61096;SDS011;46977;50.936;6.908;2023-01-19T08:41:46;19.00;;;9.38;;
61096;SDS011;46977;50.936;6.908;2023-01-19T08:44:48;18.00;;;8.90;;
61096;SDS011;46977;50.936;6.908;2023-01-19T08:48:00;16.92;;;7.63;;
61096;SDS011;46977;50.936;6.908;2023-01-19T08:51:03;16.33;;;7.30;;
61096;SDS011;46977;50.936;6.908;2023-01-19T08:54:05;18.88;;;8.57;;
61096;SDS011;46977;50.936;6.908;2023-01-19T08:57:07;17.45;;;8.02;;
61096;SDS011;46977;50.936;6.908;2023-01-19T09:00:10;15.85;;;8.85;;
61096;SDS011;46977;50.936;6.908;2023-01-19T09:03:14;20.20;;;7.70;;
61096;SDS011;46977;50.936;6.908;2023-01-19T09:06:17;16.20;;;7.88;;
61096;SDS011;46977;50.936;6.908;2023-01-19T09:09:20;15.13;;;8.07;;
61096;SDS011;46977;50.936;6.908;2023-01-19T09:12:22;20.85;;;8.40;;
61096;SDS011;46977;50.936;6.908;2023-01-19T09:15:24;15.70;;;8.48;;
61096;SDS011;46977;50.936;6.908;2023-01-19T09:18:28;18.67;;;8.65;;
61096;SDS011;46977;50.936;6.908;2023-01-19T09:21:30;17.15;;;8.60;;
61096;SDS011;46977;50.936;6.908;2023-01-19T09:24:33;22.88;;;9.43;;
61096;SDS011;46977;50.936;6.908;2023-01-19T09:27:35;21.90;;;9.82;;
61096;SDS011;46977;50.936;6.908;2023-01-19T09:30:39;20.65;;;10.07;;
61096;SDS011;46977;50.936;6.908;2023-01-19T09:33:43;20.30;;;10.60;;
61096;SDS011;46977;50.936;6.908;2023-01-19T09:36:45;23.63;;;10.40;;
61096;SDS011;46977;50.936;6.908;2023-01-19T09:39:48;22.08;;;9.70;;
61096;SDS011;46977;50.936;6.908;2023-01-19T09:42:51;20.50;;;9.77;;
61096;SDS011;46977;50.936;6.908;2023-01-19T09:45:58;18.48;;;10.50;;
61096;SDS011;46977;50.936;6.908;2023-01-19T09:49:03;20.17;;;9.05;;
61096;SDS011;46977;50.936;6.908;2023-01-19T09:52:08;22.33;;;9.93;;
61096;SDS011;46977;50.936;6.908;2023-01-19T09:55:15;22.67;;;10.25;;
61096;SDS011;46977;50.936;6.908;2023-01-19T09:58:21;23.23;;;10.55;;
61096;SDS011;46977;50.936;6.908;2023-01-19T10:01:37;24.92;;;11.00;;
61096;SDS011;46977;50.936;6.908;2023-01-19T10:04:49;24.48;;;10.75;;
61096;SDS011;46977;50.936;6.908;2023-01-19T10:07:58;23.15;;;11.18;;
61096;SDS011;46977;50.936;6.908;2023-01-19T10:11:12;26.38;;;11.98;;
61096;SDS011;46977;50.936;6.908;2023-01-19T10:14:20;25.35;;;10.43;;
61096;SDS011;46977;50.936;6.908;2023-01-19T10:17:31;26.77;;;11.40;;
61096;SDS011;46977;50.936;6.908;2023-01-19T10:20:42;33.27;;;12.57;;
61096;SDS011;46977;50.936;6.908;2023-01-19T10:23:46;28.27;;;11.52;;
61096;SDS011;46977;50.936;6.908;2023-01-19T10:26:52;27.35;;;12.15;;
61096;SDS011;46977;50.936;6.908;2023-01-19T10:29:55;31.85;;;11.40;;
61096;SDS011;46977;50.936;6.908;2023-01-19T10:32:58;30.98;;;11.77;;
61096;SDS011;46977;50.936;6.908;2023-01-19T10:36:04;40.35;;;13.07;;
61096;SDS011;46977;50.936;6.908;2023-01-19T10:39:08;27.30;;;12.05;;
61096;SDS011;46977;50.936;6.908;2023-01-19T10:42:14;30.20;;;12.65;;
61096;SDS011;46977;50.936;6.908;2023-01-19T10:45:17;27.13;;;12.27;;
61096;SDS011;46977;50.936;6.908;2023-01-19T10:48:21;27.90;;;12.57;;
61096;SDS011;46977;50.936;6.908;2023-01-19T10:51:26;25.88;;;11.93;;
61096;SDS011;46977;50.936;6.908;2023-01-19T10:54:29;34.00;;;12.48;;
61096;SDS011;46977;50.936;6.908;2023-01-19T10:57:33;31.05;;;11.73;;
61096;SDS011;46977;50.936;6.908;2023-01-19T11:00:38;29.05;;;12.55;;
61096;SDS011;46977;50.936;6.908;2023-01-19T11:03:42;26.55;;;12.73;;
61096;SDS011;46977;50.936;6.908;2023-01-19T11:06:45;28.30;;;13.02;;
61096;SDS011;46977;50.936;6.908;2023-01-19T11:09:48;34.63;;;14.25;;
61096;SDS011;46977;50.936;6.908;2023-01-19T11:13:00;40.53;;;14.75;;
61096;SDS011;46977;50.936;6.908;2023-01-19T11:16:06;39.58;;;17.05;;
61096;SDS011;46977;50.936;6.908;2023-01-19T11:19:18;28.80;;;10.65;;
61096;SDS011;46977;50.936;6.908;2023-01-19T11:22:31;29.02;;;11.68;;
61096;SDS011;46977;50.936;6.908;2023-01-19T11:25:34;35.90;;;13.68;;
61096;SDS011;46977;50.936;6.908;2023-01-19T11:28:38;20.40;;;10.18;;
61096;SDS011;46977;50.936;6.908;2023-01-19T11:31:45;32.13;;;11.30;;
61096;SDS011;46977;50.936;6.908;2023-01-19T11:34:48;31.77;;;12.93;;
61096;SDS011;46977;50.936;6.908;2023-01-19T11:37:52;34.17;;;12.05;;
61096;SDS011;46977;50.936;6.908;2023-01-19T11:41:06;28.95;;;11.95;;
61096;SDS011;46977;50.936;6.908;2023-01-19T11:44:17;27.13;;;10.57;;
61096;SDS011;46977;50.936;6.908;2023-01-19T11:47:22;27.88;;;12.35;;
61096;SDS011;46977;50.936;6.908;2023-01-19T11:50:27;25.25;;;10.30;;
61096;SDS011;46977;50.936;6.908;2023-01-19T11:53:33;23.33;;;10.18;;
61096;SDS011;46977;50.936;6.908;2023-01-19T11:56:37;28.67;;;11.07;;
61096;SDS011;46977;50.936;6.908;2023-01-19T11:59:39;27.90;;;9.82;;
61096;SDS011;46977;50.936;6.908;2023-01-19T12:02:42;23.48;;;11.15;;
61096;SDS011;46977;50.936;6.908;2023-01-19T12:05:46;23.80;;;11.45;;
61096;SDS011;46977;50.936;6.908;2023-01-19T12:08:52;27.23;;;9.85;;
61096;SDS011;46977;50.936;6.908;2023-01-19T12:11:57;20.38;;;9.45;;
61096;SDS011;46977;50.936;6.908;2023-01-19T12:15:05;26.08;;;10.05;;
61096;SDS011;46977;50.936;6.908;2023-01-19T12:18:11;24.02;;;10.48;;
61096;SDS011;46977;50.936;6.908;2023-01-19T12:21:17;26.75;;;10.40;;
61096;SDS011;46977;50.936;6.908;2023-01-19T12:24:25;27.15;;;9.02;;
61096;SDS011;46977;50.936;6.908;2023-01-19T12:27:35;23.00;;;9.35;;
61096;SDS011;46977;50.936;6.908;2023-01-19T12:30:39;26.60;;;11.13;;
61096;SDS011;46977;50.936;6.908;2023-01-19T12:33:42;23.63;;;11.02;;
61096;SDS011;46977;50.936;6.908;2023-01-19T12:36:44;21.05;;;9.57;;
61096;SDS011;46977;50.936;6.908;2023-01-19T12:39:48;27.20;;;11.05;;
61096;SDS011;46977;50.936;6.908;2023-01-19T12:42:54;25.13;;;11.55;;
61096;SDS011;46977;50.936;6.908;2023-01-19T12:45:59;26.50;;;11.38;;
61096;SDS011;46977;50.936;6.908;2023-01-19T12:49:03;30.70;;;11.20;;
61096;SDS011;46977;50.936;6.908;2023-01-19T12:52:17;18.70;;;9.68;;
61096;SDS011;46977;50.936;6.908;2023-01-19T12:55:25;24.45;;;11.38;;
61096;SDS011;46977;50.936;6.908;2023-01-19T12:58:28;19.45;;;9.52;;
61096;SDS011;46977;50.936;6.908;2023-01-19T13:01:31;21.60;;;9.90;;
61096;SDS011;46977;50.936;6.908;2023-01-19T13:04:33;29.90;;;10.90;;
61096;SDS011;46977;50.936;6.908;2023-01-19T13:11:17;21.45;;;9.80;;
61096;SDS011;46977;50.936;6.908;2023-01-19T13:14:33;23.85;;;10.25;;
61096;SDS011;46977;50.936;6.908;2023-01-19T13:17:37;25.95;;;10.40;;
61096;SDS011;46977;50.936;6.908;2023-01-19T13:20:52;20.33;;;9.32;;
61096;SDS011;46977;50.936;6.908;2023-01-19T13:23:57;19.90;;;10.52;;
61096;SDS011;46977;50.936;6.908;2023-01-19T13:27:03;25.70;;;10.18;;
61096;SDS011;46977;50.936;6.908;2023-01-19T13:30:09;24.20;;;10.25;;
61096;SDS011;46977;50.936;6.908;2023-01-19T13:33:14;21.85;;;9.38;;
61096;SDS011;46977;50.936;6.908;2023-01-19T13:36:21;20.80;;;10.45;;
61096;SDS011;46977;50.936;6.908;2023-01-19T13:39:28;26.60;;;11.68;;
61096;SDS011;46977;50.936;6.908;2023-01-19T13:42:33;25.15;;;10.05;;
61096;SDS011;46977;50.936;6.908;2023-01-19T13:45:37;23.17;;;9.82;;
61096;SDS011;46977;50.936;6.908;2023-01-19T13:48:42;21.33;;;10.02;;
61096;SDS011;46977;50.936;6.908;2023-01-19T13:52:03;19.40;;;9.55;;
61096;SDS011;46977;50.936;6.908;2023-01-19T13:55:11;27.17;;;10.88;;
61096;SDS011;46977;50.936;6.908;2023-01-19T13:58:22;19.58;;;9.57;;
61096;SDS011;46977;50.936;6.908;2023-01-19T14:01:25;20.52;;;8.57;;
61096;SDS011;46977;50.936;6.908;2023-01-19T14:04:31;20.67;;;8.40;;
61096;SDS011;46977;50.936;6.908;2023-01-19T14:07:34;28.88;;;9.60;;
61096;SDS011;46977;50.936;6.908;2023-01-19T14:10:37;22.13;;;8.07;;
61096;SDS011;46977;50.936;6.908;2023-01-19T14:13:42;19.30;;;9.52;;
61096;SDS011;46977;50.936;6.908;2023-01-19T14:16:45;17.45;;;8.35;;
61096;SDS011;46977;50.936;6.908;2023-01-19T14:19:48;17.25;;;8.55;;
61096;SDS011;46977;50.936;6.908;2023-01-19T14:22:51;19.08;;;8.70;;
61096;SDS011;46977;50.936;6.908;2023-01-19T14:25:53;24.42;;;9.98;;
61096;SDS011;46977;50.936;6.908;2023-01-19T14:28:57;19.88;;;8.82;;
61096;SDS011;46977;50.936;6.908;2023-01-19T14:32:09;19.80;;;8.43;;
61096;SDS011;46977;50.936;6.908;2023-01-19T14:35:22;21.73;;;8.75;;
61096;SDS011;46977;50.936;6.908;2023-01-19T14:38:25;16.60;;;7.80;;
61096;SDS011;46977;50.936;6.908;2023-01-19T14:41:29;19.27;;;8.45;;
61096;SDS011;46977;50.936;6.908;2023-01-19T14:44:38;22.67;;;8.68;;
61096;SDS011;46977;50.936;6.908;2023-01-19T14:47:41;21.63;;;8.40;;
61096;SDS011;46977;50.936;6.908;2023-01-19T14:50:44;22.48;;;9.27;;
61096;SDS011;46977;50.936;6.908;2023-01-19T14:54:03;19.33;;;8.85;;
61096;SDS011;46977;50.936;6.908;2023-01-19T14:57:09;18.13;;;8.23;;
61096;SDS011;46977;50.936;6.908;2023-01-19T15:00:16;16.60;;;7.15;;
61096;SDS011;46977;50.936;6.908;2023-01-19T15:03:19;19.27;;;8.20;;
61096;SDS011;46977;50.936;6.908;2023-01-19T15:06:25;17.38;;;8.05;;
61096;SDS011;46977;50.936;6.908;2023-01-19T15:09:28;19.63;;;8.52;;
61096;SDS011;46977;50.936;6.908;2023-01-19T15:12:30;19.35;;;8.77;;
61096;SDS011;46977;50.936;6.908;2023-01-19T15:15:34;20.05;;;8.85;;
61096;SDS011;46977;50.936;6.908;2023-01-19T15:18:37;16.30;;;7.57;;
61096;SDS011;46977;50.936;6.908;2023-01-19T15:21:40;14.57;;;8.45;;
61096;SDS011;46977;50.936;6.908;2023-01-19T15:24:43;16.85;;;7.22;;
61096;SDS011;46977;50.936;6.908;2023-01-19T15:27:45;14.38;;;6.78;;
61096;SDS011;46977;50.936;6.908;2023-01-19T15:30:49;18.42;;;8.18;;
61096;SDS011;46977;50.936;6.908;2023-01-19T15:33:54;14.93;;;7.55;;
61096;SDS011;46977;50.936;6.908;2023-01-19T15:36:57;15.73;;;7.72;;
61096;SDS011;46977;50.936;6.908;2023-01-19T15:40:00;15.57;;;6.82;;
61096;SDS011;46977;50.936;6.908;2023-01-19T15:43:03;20.17;;;7.10;;
61096;SDS011;46977;50.936;6.908;2023-01-19T15:46:07;16.00;;;6.57;;
61096;SDS011;46977;50.936;6.908;2023-01-19T15:49:10;18.98;;;7.43;;
61096;SDS011;46977;50.936;6.908;2023-01-19T15:52:12;16.00;;;7.05;;
61096;SDS011;46977;50.936;6.908;2023-01-19T15:55:18;13.43;;;7.13;;
61096;SDS011;46977;50.936;6.908;2023-01-19T15:58:21;12.52;;;5.93;;
61096;SDS011;46977;50.936;6.908;2023-01-19T16:01:26;12.23;;;6.90;;
61096;SDS011;46977;50.936;6.908;2023-01-19T16:04:33;11.70;;;6.10;;
61096;SDS011;46977;50.936;6.908;2023-01-19T16:07:36;11.88;;;5.50;;
61096;SDS011;46977;50.936;6.908;2023-01-19T16:10:39;15.82;;;6.70;;
61096;SDS011;46977;50.936;6.908;2023-01-19T16:13:43;14.50;;;6.00;;
61096;SDS011;46977;50.936;6.908;2023-01-19T16:16:47;15.20;;;6.95;;
61096;SDS011;46977;50.936;6.908;2023-01-19T16:19:50;15.10;;;6.10;;
61096;SDS011;46977;50.936;6.908;2023-01-19T16:22:52;12.65;;;6.40;;
61096;SDS011;46977;50.936;6.908;2023-01-19T16:25:59;10.95;;;5.60;;
61096;SDS011;46977;50.936;6.908;2023-01-19T16:29:08;10.10;;;4.95;;
61096;SDS011;46977;50.936;6.908;2023-01-19T16:32:13;11.40;;;5.95;;
61096;SDS011;46977;50.936;6.908;2023-01-19T16:35:17;16.08;;;5.95;;
61096;SDS011;46977;50.936;6.908;2023-01-19T16:38:20;15.07;;;5.70;;
61096;SDS011;46977;50.936;6.908;2023-01-19T16:41:23;19.05;;;5.45;;
61096;SDS011;46977;50.936;6.908;2023-01-19T16:44:25;14.35;;;5.88;;
61096;SDS011;46977;50.936;6.908;2023-01-19T16:47:29;13.48;;;6.03;;
61096;SDS011;46977;50.936;6.908;2023-01-19T16:50:32;17.02;;;5.18;;
61096;SDS011;46977;50.936;6.908;2023-01-19T16:53:34;11.73;;;5.32;;
61096;SDS011;46977;50.936;6.908;2023-01-19T16:56:36;9.77;;;4.88;;
61096;SDS011;46977;50.936;6.908;2023-01-19T16:59:39;16.42;;;5.55;;
61096;SDS011;46977;50.936;6.908;2023-01-19T17:02:43;15.32;;;4.43;;
61096;SDS011;46977;50.936;6.908;2023-01-19T17:05:49;11.52;;;5.18;;
61096;SDS011;46977;50.936;6.908;2023-01-19T17:08:51;15.25;;;5.07;;
61096;SDS011;46977;50.936;6.908;2023-01-19T17:11:54;7.20;;;4.38;;
61096;SDS011;46977;50.936;6.908;2023-01-19T17:14:56;12.65;;;4.75;;
61096;SDS011;46977;50.936;6.908;2023-01-19T17:18:00;13.27;;;4.30;;
61096;SDS011;46977;50.936;6.908;2023-01-19T17:21:03;16.40;;;5.30;;
61096;SDS011;46977;50.936;6.908;2023-01-19T17:24:07;8.60;;;4.10;;
61096;SDS011;46977;50.936;6.908;2023-01-19T17:27:09;5.85;;;3.92;;
61096;SDS011;46977;50.936;6.908;2023-01-19T17:30:12;8.65;;;3.20;;
61096;SDS011;46977;50.936;6.908;2023-01-19T17:33:16;14.50;;;5.70;;
61096;SDS011;46977;50.936;6.908;2023-01-19T17:36:19;12.15;;;5.32;;
61096;SDS011;46977;50.936;6.908;2023-01-19T17:39:23;11.23;;;3.92;;
61096;SDS011;46977;50.936;6.908;2023-01-19T17:42:26;12.38;;;4.18;;
61096;SDS011;46977;50.936;6.908;2023-01-19T17:45:28;7.07;;;4.45;;
61096;SDS011;46977;50.936;6.908;2023-01-19T17:48:32;12.52;;;4.45;;
61096;SDS011;46977;50.936;6.908;2023-01-19T17:51:34;10.80;;;4.15;;
61096;SDS011;46977;50.936;6.908;2023-01-19T17:54:37;11.57;;;3.90;;
61096;SDS011;46977;50.936;6.908;2023-01-19T17:57:40;7.75;;;3.65;;
61096;SDS011;46977;50.936;6.908;2023-01-19T18:00:42;10.50;;;4.03;;
61096;SDS011;46977;50.936;6.908;2023-01-19T18:03:46;7.75;;;3.33;;
61096;SDS011;46977;50.936;6.908;2023-01-19T18:06:48;9.15;;;3.60;;
61096;SDS011;46977;50.936;6.908;2023-01-19T18:13:04;9.45;;;4.68;;
61096;SDS011;46977;50.936;6.908;2023-01-19T18:16:07;6.88;;;3.67;;
61096;SDS011;46977;50.936;6.908;2023-01-19T18:19:13;7.35;;;4.25;;
61096;SDS011;46977;50.936;6.908;2023-01-19T18:22:15;6.05;;;3.72;;
61096;SDS011;46977;50.936;6.908;2023-01-19T18:25:18;7.50;;;3.83;;